createdAt,value
2022-12-18T00:02:12.981Z,101639.34
2022-12-18T00:04:39.441Z,101633.63
2022-12-18T00:07:05.830Z,101648.03
2022-12-18T00:09:39.500Z,101649.16
2022-12-18T00:14:45.079Z,101653.44
2022-12-18T00:17:11.440Z,101658.66
2022-12-18T00:19:37.821Z,101653.44
2022-12-18T00:22:04.276Z,101648.59
2022-12-18T00:24:30.693Z,101645.84
2022-12-18T00:26:57.082Z,101650.28
2022-12-18T00:29:23.499Z,101655.03
2022-12-18T00:31:49.947Z,101663.50
2022-12-18T00:34:16.795Z,101653.75
2022-12-18T00:36:43.338Z,101655.63
2022-12-18T00:39:11.703Z,101663.75
2022-12-18T00:41:56.952Z,101659.59
2022-12-18T00:44:23.399Z,101652.78
2022-12-18T00:46:49.893Z,101642.97
2022-12-18T00:49:18.639Z,101635.84
2022-12-18T00:51:46.245Z,101642.25
2022-12-18T00:54:12.952Z,101655.06
2022-12-18T00:56:48.278Z,101663.03
2022-12-18T00:59:15.581Z,101656.22
2022-12-18T01:01:42.105Z,101644.88
2022-12-18T01:04:08.701Z,101653.72
2022-12-18T01:06:35.389Z,101658.09
2022-12-18T01:09:03.065Z,101657.56
2022-12-18T01:11:29.468Z,101644.94
2022-12-18T01:13:56.217Z,101637.88
2022-12-18T01:16:23.605Z,101644.16
2022-12-18T01:18:54.486Z,101642.78
2022-12-18T01:21:22.333Z,101654.94
2022-12-18T01:23:53.031Z,101661.38
2022-12-18T01:26:19.716Z,101664.78
2022-12-18T01:28:46.069Z,101668.25
2022-12-18T01:31:22.016Z,101671.09
2022-12-18T01:33:52.453Z,101680.19
2022-12-18T01:36:28.080Z,101677.09
2022-12-18T01:38:54.560Z,101683.06
2022-12-18T01:41:27.013Z,101680.47
2022-12-18T01:43:57.882Z,101687.75
2022-12-18T01:46:28.304Z,101675.88
2022-12-18T01:48:58.910Z,101674.19
2022-12-18T01:51:26.611Z,101668.19
2022-12-18T01:53:53.076Z,101682.91
2022-12-18T01:56:21.405Z,101690.38
2022-12-18T01:59:02.304Z,101692.88
2022-12-18T02:01:30.974Z,101679.75
2022-12-18T02:04:15.444Z,101669.31
2022-12-18T02:06:43.942Z,101680.47
2022-12-18T02:09:21.513Z,101691.19
2022-12-18T02:11:57.992Z,101682.44
2022-12-18T02:14:43.757Z,101684.38
2022-12-18T02:17:20.356Z,101673.88
2022-12-18T02:20:09.088Z,101668.41
2022-12-18T02:22:58.635Z,101673.59
2022-12-18T02:25:59.137Z,101680.66
2022-12-18T02:28:32.146Z,101672.44
2022-12-18T02:31:02.038Z,101664.25
2022-12-18T02:33:31.870Z,101667.19
2022-12-18T02:36:00.907Z,101656.63
2022-12-18T02:38:29.333Z,101660.09
2022-12-18T02:40:55.907Z,101657.91
2022-12-18T02:43:22.484Z,101661.75
2022-12-18T02:45:55.637Z,101651.84
2022-12-18T02:48:30.257Z,101654.03
2022-12-18T02:51:40.552Z,101649.16
2022-12-18T02:54:20.051Z,101648.34
2022-12-18T02:56:56.761Z,101639.94
2022-12-18T02:59:34.790Z,101643.09
2022-12-18T03:02:21.877Z,101645.22
2022-12-18T03:05:07.102Z,101647.09
2022-12-18T03:07:43.114Z,101648.53
2022-12-18T03:10:14.415Z,101644.97
2022-12-18T03:12:50.720Z,101645.88
2022-12-18T03:15:25.879Z,101653.06
2022-12-18T03:18:00.205Z,101651.22
2022-12-18T03:20:30.100Z,101647.47
2022-12-18T03:23:03.477Z,101650.59
2022-12-18T03:25:33.528Z,101646.38
2022-12-18T03:28:04.263Z,101655.59
2022-12-18T03:30:33.905Z,101648.78
2022-12-18T03:33:09.700Z,101651.34
2022-12-18T03:35:41.063Z,101653.44
2022-12-18T03:38:07.805Z,101645.25
2022-12-18T03:40:46.886Z,101652.47
2022-12-18T03:43:34.856Z,101655.94
2022-12-18T03:46:10.830Z,101654.09
2022-12-18T03:48:45.291Z,101659.25
2022-12-18T03:51:44.693Z,101658.19
2022-12-18T03:54:12.451Z,101666.56
2022-12-18T03:56:43.969Z,101657.53
2022-12-18T03:59:13.508Z,101654.56
2022-12-18T04:01:43.470Z,101653.84
2022-12-18T04:04:13.203Z,101643.66
2022-12-18T04:06:40.977Z,101637.13
2022-12-18T04:09:07.776Z,101645.41
2022-12-18T04:11:34.324Z,101640.34
2022-12-18T04:14:02.735Z,101642.75
2022-12-18T04:16:32.352Z,101638.09
2022-12-18T04:18:58.866Z,101638.38
2022-12-18T04:21:25.328Z,101636.31
2022-12-18T04:23:51.725Z,101640.06
2022-12-18T04:26:18.131Z,101645.59
2022-12-18T04:28:44.476Z,101641.94
2022-12-18T04:31:10.972Z,101648.69
2022-12-18T04:33:37.703Z,101645.72
2022-12-18T04:36:05.257Z,101640.06
2022-12-18T04:38:31.784Z,101645.13
2022-12-18T04:40:58.200Z,101648.38
2022-12-18T04:43:24.704Z,101654.31
2022-12-18T04:45:51.095Z,101647.94
2022-12-18T04:48:17.605Z,101654.59
2022-12-18T04:50:43.996Z,101649.44
2022-12-18T04:53:10.441Z,101660.94
2022-12-18T04:55:36.829Z,101672.03
2022-12-18T04:58:03.659Z,101672.53
2022-12-18T05:00:30.054Z,101670.13
2022-12-18T05:02:56.520Z,101676.00
2022-12-18T05:05:23.010Z,101672.47
2022-12-18T05:07:49.373Z,101668.59
2022-12-18T05:10:15.817Z,101660.75
2022-12-18T05:13:01.534Z,101662.97
2022-12-18T05:15:31.930Z,101650.19
2022-12-18T05:17:59.761Z,101651.75
2022-12-18T05:20:27.535Z,101650.28
2022-12-18T05:22:54.736Z,101650.38
2022-12-18T05:25:22.043Z,101654.47
2022-12-18T05:27:48.825Z,101655.13
2022-12-18T05:30:16.230Z,101654.94
2022-12-18T05:32:42.897Z,101642.63
2022-12-18T05:35:11.581Z,101645.03
2022-12-18T05:37:42.751Z,101643.69
2022-12-18T05:40:10.817Z,101653.22
2022-12-18T05:42:37.252Z,101656.81
2022-12-18T05:45:04.009Z,101647.09
2022-12-18T05:47:30.473Z,101651.75
2022-12-18T05:49:57.268Z,101653.69
2022-12-18T05:52:24.202Z,101653.16
2022-12-18T05:54:50.620Z,101663.22
2022-12-18T05:57:17.017Z,101661.97
2022-12-18T05:59:43.406Z,101664.19
2022-12-18T06:02:09.978Z,101664.38
2022-12-18T06:04:36.488Z,101677.50
2022-12-18T06:07:06.032Z,101664.59
2022-12-18T06:09:33.000Z,101670.34
2022-12-18T06:11:59.955Z,101666.38
2022-12-18T06:14:26.448Z,101676.91
2022-12-18T06:16:53.314Z,101675.81
2022-12-18T06:19:19.695Z,101680.50
2022-12-18T06:21:46.127Z,101689.72
2022-12-18T06:24:12.548Z,101680.28
2022-12-18T06:26:39.876Z,101692.41
2022-12-18T06:29:06.505Z,101698.16
2022-12-18T06:31:33.410Z,101699.63
2022-12-18T06:33:59.973Z,101704.84
2022-12-18T06:36:26.970Z,101720.78
2022-12-18T06:38:53.327Z,101727.03
2022-12-18T06:41:22.120Z,101711.78
2022-12-18T06:43:48.699Z,101713.00
2022-12-18T06:46:15.714Z,101717.41
2022-12-18T06:48:42.383Z,101714.88
2022-12-18T06:51:09.063Z,101713.28
2022-12-18T06:53:35.486Z,101713.03
2022-12-18T06:56:09.870Z,101719.03
2022-12-18T06:58:37.604Z,101718.91
2022-12-18T07:01:06.072Z,101719.72
2022-12-18T07:03:33.015Z,101710.56
2022-12-18T07:05:59.459Z,101713.75
2022-12-18T07:08:26.057Z,101706.22
2022-12-18T07:10:56.030Z,101716.03
2022-12-18T07:13:23.305Z,101720.47
2022-12-18T07:15:49.671Z,101717.41
2022-12-18T07:18:16.180Z,101707.56
2022-12-18T07:20:42.615Z,101701.41
2022-12-18T07:23:08.973Z,101716.53
2022-12-18T07:25:36.410Z,101728.31
2022-12-18T07:28:03.191Z,101731.31
2022-12-18T07:30:29.881Z,101730.19
2022-12-18T07:32:56.375Z,101737.16
2022-12-18T07:35:25.130Z,101730.88
2022-12-18T07:37:52.000Z,101739.38
2022-12-18T07:40:18.426Z,101739.94
2022-12-18T07:42:44.821Z,101745.09
2022-12-18T07:45:11.788Z,101753.91
2022-12-18T07:47:38.248Z,101750.22
2022-12-18T07:50:06.232Z,101750.69
2022-12-18T07:52:32.687Z,101738.41
2022-12-18T07:54:59.703Z,101732.28
2022-12-18T08:00:13.287Z,101733.31
2022-12-18T08:02:39.955Z,101725.06
2022-12-18T08:05:06.625Z,101739.13
2022-12-18T08:07:33.559Z,101752.88
2022-12-18T08:10:00.038Z,101746.03
2022-12-18T08:12:26.444Z,101756.50
2022-12-18T08:14:52.786Z,101749.69
2022-12-18T08:17:21.035Z,101749.00
2022-12-18T08:19:47.419Z,101751.59
2022-12-18T08:22:13.792Z,101737.88
2022-12-18T08:24:40.280Z,101725.31
2022-12-18T08:27:29.047Z,101726.91
2022-12-18T08:29:53.026Z,101729.06
2022-12-18T08:32:19.509Z,101729.94
2022-12-18T08:34:45.872Z,101738.72
2022-12-18T08:37:12.228Z,101730.50
2022-12-18T08:39:38.585Z,101720.38
2022-12-18T08:42:23.376Z,101712.06
2022-12-18T08:44:49.752Z,101712.63
2022-12-18T08:47:16.097Z,101705.47
2022-12-18T08:49:42.512Z,101707.63
2022-12-18T08:52:09.031Z,101700.03
2022-12-18T08:54:35.421Z,101692.19
2022-12-18T08:57:01.806Z,101694.66
2022-12-18T08:59:31.241Z,101697.84
2022-12-18T09:01:57.657Z,101694.16
2022-12-18T09:04:24.180Z,101697.84
2022-12-18T09:06:50.618Z,101713.88
2022-12-18T09:09:17.158Z,101711.38
2022-12-18T09:11:43.588Z,101715.22
2022-12-18T09:14:11.130Z,101702.41
2022-12-18T09:16:37.549Z,101705.72
2022-12-18T09:19:05.376Z,101716.03
2022-12-18T09:21:36.887Z,101716.34
2022-12-18T09:24:05.186Z,101727.84
2022-12-18T09:26:35.484Z,101733.63
2022-12-18T09:29:03.515Z,101729.75
2022-12-18T09:31:29.907Z,101740.09
2022-12-18T09:33:57.604Z,101735.22
2022-12-18T09:36:24.022Z,101732.25
2022-12-18T09:38:50.445Z,101739.47
2022-12-18T09:41:39.227Z,101740.28
2022-12-18T09:44:19.605Z,101734.06
2022-12-18T09:47:14.000Z,101742.13
2022-12-18T09:49:46.363Z,101749.59
2022-12-18T09:52:15.640Z,101756.31
2022-12-18T09:54:50.919Z,101753.09
2022-12-18T09:57:25.543Z,101737.50
2022-12-18T10:00:00.146Z,101747.94
2022-12-18T10:02:30.789Z,101744.16
2022-12-18T10:05:12.560Z,101744.19
2022-12-18T10:07:50.758Z,101737.88
2022-12-18T10:10:34.848Z,101726.97
2022-12-18T10:13:04.848Z,101727.63
2022-12-18T10:15:45.207Z,101720.66
2022-12-18T10:18:37.914Z,101719.28
2022-12-18T10:21:11.756Z,101711.19
2022-12-18T10:23:52.211Z,101700.34
2022-12-18T10:26:19.136Z,101710.56
2022-12-18T10:28:46.598Z,101706.59
2022-12-18T10:31:22.136Z,101702.66
2022-12-18T10:33:51.554Z,101702.63
2022-12-18T10:36:17.985Z,101712.88
2022-12-18T10:38:44.631Z,101723.06
2022-12-18T10:41:21.917Z,101711.38
2022-12-18T10:43:48.685Z,101719.22
2022-12-18T10:46:18.666Z,101713.06
2022-12-18T10:48:47.861Z,101711.00
2022-12-18T10:51:40.643Z,101730.75
2022-12-18T10:54:17.167Z,101732.38
2022-12-18T10:56:44.553Z,101728.31
2022-12-18T10:59:14.170Z,101720.94
2022-12-18T11:01:58.358Z,101719.81
2022-12-18T11:04:26.146Z,101713.66
2022-12-18T11:06:57.194Z,101708.88
2022-12-18T11:09:45.297Z,101718.91
2022-12-18T11:12:11.643Z,101706.53
2022-12-18T11:14:48.754Z,101710.63
2022-12-18T11:17:33.373Z,101706.19
2022-12-18T11:20:02.087Z,101706.53
2022-12-18T11:22:31.866Z,101707.63
2022-12-18T11:27:55.098Z,101695.44
2022-12-18T11:30:26.257Z,101710.16
2022-12-18T11:33:14.039Z,101715.94
2022-12-18T11:35:51.496Z,101706.63
2022-12-18T11:38:32.225Z,101699.25
2022-12-18T11:41:22.660Z,101685.31
2022-12-18T11:43:55.337Z,101686.47
2022-12-18T11:46:41.963Z,101682.25
2022-12-18T11:49:14.329Z,101679.84
2022-12-18T11:52:12.235Z,101686.53
2022-12-18T11:54:38.671Z,101685.47
2022-12-18T11:57:35.873Z,101677.22
2022-12-18T12:00:10.080Z,101663.50
2022-12-18T12:02:48.403Z,101664.31
2022-12-18T12:05:36.323Z,101674.50
2022-12-18T12:08:16.121Z,101651.22
2022-12-18T12:11:04.872Z,101639.81
2022-12-18T12:13:48.040Z,101636.59
2022-12-18T12:16:28.071Z,101640.53
2022-12-18T12:19:01.650Z,101649.25
2022-12-18T12:22:08.654Z,101628.75
2022-12-18T12:24:56.902Z,101628.97
2022-12-18T12:27:52.009Z,101613.69
2022-12-18T12:30:27.368Z,101620.66
2022-12-18T12:33:05.825Z,101626.19
2022-12-18T12:35:41.251Z,101625.72
2022-12-18T12:38:19.122Z,101617.53
2022-12-18T12:40:56.966Z,101619.69
2022-12-18T12:43:42.321Z,101617.31
2022-12-18T12:46:16.458Z,101615.91
2022-12-18T12:48:47.781Z,101611.22
2022-12-18T12:51:20.527Z,101607.97
2022-12-18T12:53:47.400Z,101605.59
2022-12-18T12:56:16.865Z,101611.78
2022-12-18T12:58:54.138Z,101604.00
2022-12-18T13:01:38.033Z,101596.47
2022-12-18T13:04:25.085Z,101593.94
2022-12-18T13:07:02.468Z,101591.34
2022-12-18T13:09:55.369Z,101591.50
2022-12-18T13:12:41.719Z,101586.78
2022-12-18T13:15:23.872Z,101574.41
2022-12-18T13:18:03.351Z,101573.34
2022-12-18T13:20:35.580Z,101567.69
2022-12-18T13:23:02.266Z,101571.88
2022-12-18T13:25:35.043Z,101578.06
2022-12-18T13:28:09.455Z,101567.91
2022-12-18T13:30:36.078Z,101569.03
2022-12-18T13:33:14.937Z,101564.41
2022-12-18T13:36:02.161Z,101565.47
2022-12-18T13:38:39.265Z,101574.47
2022-12-18T13:41:08.481Z,101569.66
2022-12-18T13:43:43.776Z,101566.47
2022-12-18T13:46:30.985Z,101566.25
2022-12-18T13:49:06.137Z,101562.22
2022-12-18T13:51:34.909Z,101567.97
2022-12-18T13:54:13.418Z,101568.78
2022-12-18T13:56:45.674Z,101570.66
2022-12-18T13:59:23.878Z,101556.53
2022-12-18T14:01:53.637Z,101548.97
2022-12-18T14:04:29.911Z,101556.13
2022-12-18T14:07:02.528Z,101562.78
2022-12-18T14:09:38.089Z,101563.16
2022-12-18T14:12:26.465Z,101565.44
2022-12-18T14:14:55.291Z,101569.19
2022-12-18T14:17:23.916Z,101567.84
2022-12-18T14:19:52.198Z,101571.00
2022-12-18T14:22:31.476Z,101568.47
2022-12-18T14:25:14.123Z,101562.22
2022-12-18T14:27:46.419Z,101554.69
2022-12-18T14:30:24.979Z,101554.91
2022-12-18T14:33:25.743Z,101553.88
2022-12-18T14:35:58.040Z,101563.25
2022-12-18T14:38:26.185Z,101552.59
2022-12-18T14:41:14.220Z,101553.75
2022-12-18T14:43:44.372Z,101557.50
2022-12-18T14:46:29.835Z,101549.97
2022-12-18T14:48:57.929Z,101559.16
2022-12-18T14:51:34.932Z,101547.63
2022-12-18T14:54:04.996Z,101555.66
2022-12-18T14:56:34.500Z,101543.94
2022-12-18T14:59:04.491Z,101538.75
2022-12-18T15:01:34.299Z,101542.06
2022-12-18T15:04:03.123Z,101537.22
2022-12-18T15:06:31.404Z,101536.25
2022-12-18T15:09:00.201Z,101540.63
2022-12-18T15:11:35.701Z,101533.91
2022-12-18T15:14:30.830Z,101536.97
2022-12-18T15:16:58.947Z,101531.47
2022-12-18T15:19:41.593Z,101534.97
2022-12-18T15:22:37.534Z,101533.59
2022-12-18T15:25:24.296Z,101537.94
2022-12-18T15:27:50.824Z,101528.22
2022-12-18T15:30:22.843Z,101533.13
2022-12-18T15:32:50.473Z,101533.19
2022-12-18T15:35:22.988Z,101531.75
2022-12-18T15:37:50.882Z,101539.81
2022-12-18T15:40:22.945Z,101542.97
2022-12-18T15:43:08.341Z,101536.81
2022-12-18T15:45:34.795Z,101539.19
2022-12-18T15:48:18.823Z,101538.72
2022-12-18T15:50:45.209Z,101533.84
2022-12-18T15:53:11.584Z,101532.28
2022-12-18T15:56:01.035Z,101525.16
2022-12-18T15:58:27.933Z,101525.22
2022-12-18T16:00:57.069Z,101526.13
2022-12-18T16:03:23.449Z,101531.44
2022-12-18T16:05:50.725Z,101530.09
2022-12-18T16:08:17.124Z,101524.53
2022-12-18T16:10:43.612Z,101523.59
2022-12-18T16:13:15.461Z,101526.06
2022-12-18T16:15:41.871Z,101523.28
2022-12-18T16:18:08.370Z,101530.44
2022-12-18T16:20:34.774Z,101528.06
2022-12-18T16:23:01.180Z,101518.88
2022-12-18T16:25:28.971Z,101526.78
2022-12-18T16:27:56.234Z,101524.63
2022-12-18T16:30:29.446Z,101504.44
2022-12-18T16:33:00.432Z,101523.28
2022-12-18T16:35:27.314Z,101521.19
2022-12-18T16:37:53.768Z,101509.50
2022-12-18T16:40:20.709Z,101510.47
2022-12-18T16:42:47.340Z,101521.13
2022-12-18T16:45:16.686Z,101516.16
2022-12-18T16:47:43.240Z,101515.94
2022-12-18T16:50:10.494Z,101507.69
2022-12-18T16:52:36.984Z,101510.81
2022-12-18T16:55:03.937Z,101498.00
2022-12-18T16:57:30.350Z,101499.22
2022-12-18T17:00:02.948Z,101496.34
2022-12-18T17:02:31.550Z,101487.44
2022-12-18T17:04:58.560Z,101491.97
2022-12-18T17:07:26.572Z,101488.91
2022-12-18T17:09:54.128Z,101494.22
2022-12-18T17:12:21.070Z,101489.97
2022-12-18T17:14:47.458Z,101486.00
2022-12-18T17:17:22.554Z,101486.69
2022-12-18T17:19:51.399Z,101481.50
2022-12-18T17:22:17.792Z,101486.13
2022-12-18T17:24:44.326Z,101488.72
2022-12-18T17:27:10.772Z,101491.22
2022-12-18T17:29:40.136Z,101492.84
2022-12-18T17:32:10.288Z,101490.13
2022-12-18T17:34:37.643Z,101483.66
2022-12-18T17:37:03.990Z,101484.53
2022-12-18T17:39:30.711Z,101474.06
2022-12-18T17:41:57.865Z,101472.03
2022-12-18T17:44:24.303Z,101474.91
2022-12-18T17:46:50.684Z,101484.63
2022-12-18T17:49:17.141Z,101474.91
2022-12-18T17:51:43.596Z,101475.34
2022-12-18T17:54:11.001Z,101475.63
2022-12-18T17:56:38.482Z,101472.84
2022-12-18T17:59:06.733Z,101474.13
2022-12-18T18:01:33.443Z,101467.97
2022-12-18T18:04:00.682Z,101473.53
2022-12-18T18:06:27.641Z,101470.94
2022-12-18T18:08:54.850Z,101470.13
2022-12-18T18:11:44.512Z,101474.41
2022-12-18T18:14:14.835Z,101472.72
2022-12-18T18:16:44.608Z,101482.34
2022-12-18T18:19:17.226Z,101479.03
2022-12-18T18:21:47.060Z,101471.91
2022-12-18T18:24:16.870Z,101474.16
2022-12-18T18:26:44.280Z,101469.84
2022-12-18T18:29:19.877Z,101467.38
2022-12-18T18:31:47.065Z,101457.00
2022-12-18T18:34:20.476Z,101452.97
2022-12-18T18:36:46.872Z,101455.66
2022-12-18T18:39:14.232Z,101450.44
2022-12-18T18:41:41.101Z,101434.63
2022-12-18T18:44:11.721Z,101430.38
2022-12-18T18:46:38.121Z,101430.47
2022-12-18T18:49:05.630Z,101434.09
2022-12-18T18:51:35.113Z,101436.84
2022-12-18T18:54:01.837Z,101438.34
2022-12-18T18:56:56.586Z,101443.75
2022-12-18T18:59:15.194Z,101435.06
2022-12-18T19:01:41.893Z,101428.34
2022-12-18T19:04:08.429Z,101420.69
2022-12-18T19:06:34.945Z,101427.06
2022-12-18T19:09:04.309Z,101414.69
2022-12-18T19:11:49.475Z,101409.13
2022-12-18T19:14:16.333Z,101415.44
2022-12-18T19:16:45.388Z,101411.69
2022-12-18T19:19:13.308Z,101404.22
2022-12-18T19:21:40.715Z,101399.34
2022-12-18T19:24:07.612Z,101399.78
2022-12-18T19:26:35.739Z,101397.44
2022-12-18T19:29:08.201Z,101395.72
2022-12-18T19:31:36.997Z,101397.50
2022-12-18T19:34:07.907Z,101399.63
2022-12-18T19:36:36.317Z,101394.00
2022-12-18T19:39:10.118Z,101390.94
2022-12-18T19:41:36.784Z,101390.03
2022-12-18T19:44:07.500Z,101388.81
2022-12-18T19:46:35.577Z,101393.44
2022-12-18T19:49:02.344Z,101399.94
2022-12-18T19:51:30.879Z,101394.31
2022-12-18T19:53:59.883Z,101388.34
2022-12-18T19:56:30.891Z,101391.22
2022-12-18T19:58:57.663Z,101394.06
2022-12-18T20:01:25.786Z,101384.56
2022-12-18T20:03:55.279Z,101384.19
2022-12-18T20:06:27.764Z,101386.50
2022-12-18T20:09:00.565Z,101383.19
2022-12-18T20:11:31.530Z,101386.34
2022-12-18T20:14:01.044Z,101388.03
2022-12-18T20:16:27.776Z,101390.81
2022-12-18T20:18:56.193Z,101385.59
2022-12-18T20:21:22.635Z,101373.72
2022-12-18T20:23:49.060Z,101372.00
2022-12-18T20:26:15.585Z,101374.59
2022-12-18T20:28:42.458Z,101366.69
2022-12-18T20:31:10.572Z,101362.81
2022-12-18T20:33:40.412Z,101368.31
2022-12-18T20:36:14.414Z,101363.31
2022-12-18T20:38:41.935Z,101365.84
2022-12-18T20:41:11.882Z,101368.56
2022-12-18T20:43:39.437Z,101366.81
2022-12-18T20:46:09.058Z,101370.47
2022-12-18T20:48:36.184Z,101369.13
2022-12-18T20:51:11.448Z,101363.69
2022-12-18T20:53:38.572Z,101363.63
2022-12-18T20:56:10.432Z,101366.84
2022-12-18T20:58:36.875Z,101370.22
2022-12-18T21:01:09.624Z,101373.13
2022-12-18T21:03:36.848Z,101372.31
2022-12-18T21:06:03.819Z,101359.72
2022-12-18T21:08:30.196Z,101364.44
2022-12-18T21:10:56.685Z,101365.09
2022-12-18T21:13:23.613Z,101362.16
2022-12-18T21:15:53.379Z,101367.75
2022-12-18T21:18:20.326Z,101358.84
2022-12-18T21:20:46.880Z,101357.00
2022-12-18T21:23:16.381Z,101362.72
2022-12-18T21:25:43.749Z,101367.81
2022-12-18T21:28:12.048Z,101363.88
2022-12-18T21:30:38.708Z,101369.13
2022-12-18T21:33:05.188Z,101364.75
2022-12-18T21:35:32.205Z,101364.59
2022-12-18T21:37:58.705Z,101362.16
2022-12-18T21:40:25.185Z,101357.00
2022-12-18T21:43:10.425Z,101353.72
2022-12-18T21:45:40.373Z,101353.22
2022-12-18T21:48:08.385Z,101359.44
2022-12-18T21:50:34.730Z,101359.84
2022-12-18T21:53:01.089Z,101366.13
2022-12-18T21:55:27.528Z,101360.78
2022-12-18T21:57:53.981Z,101365.03
2022-12-18T22:00:20.615Z,101363.59
2022-12-18T22:02:48.749Z,101357.53
2022-12-18T22:05:34.621Z,101363.91
2022-12-18T22:08:01.464Z,101362.81
2022-12-18T22:10:27.865Z,101369.78
2022-12-18T22:12:55.037Z,101365.09
2022-12-18T22:15:22.078Z,101359.06
2022-12-18T22:17:54.149Z,101350.56
2022-12-18T22:20:26.880Z,101348.63
2022-12-18T22:22:53.413Z,101343.16
2022-12-18T22:25:19.851Z,101354.88
2022-12-18T22:28:06.301Z,101351.56
2022-12-18T22:30:32.668Z,101350.56
2022-12-18T22:32:59.440Z,101346.19
2022-12-18T22:35:25.897Z,101354.38
2022-12-18T22:37:52.422Z,101352.38
2022-12-18T22:40:25.318Z,101346.41
2022-12-18T22:42:52.734Z,101342.03
2022-12-18T22:45:19.384Z,101336.88
2022-12-18T22:47:45.733Z,101341.84
2022-12-18T22:50:13.750Z,101333.22
2022-12-18T22:52:40.703Z,101334.03
2022-12-18T22:55:07.855Z,101334.09
2022-12-18T22:57:34.417Z,101341.50
2022-12-18T23:00:01.951Z,101339.78
2022-12-18T23:02:28.528Z,101338.75
2022-12-18T23:04:55.017Z,101339.84
2022-12-18T23:07:21.389Z,101328.59
2022-12-18T23:09:49.268Z,101327.50
2022-12-18T23:12:17.416Z,101334.72
2022-12-18T23:14:44.308Z,101323.63
2022-12-18T23:17:10.917Z,101319.94
2022-12-18T23:19:37.528Z,101310.28
2022-12-18T23:22:07.353Z,101316.16
2022-12-18T23:24:37.853Z,101314.97
2022-12-18T23:27:04.839Z,101317.63
2022-12-18T23:29:34.621Z,101320.78
2022-12-18T23:32:01.047Z,101323.84
2022-12-18T23:34:27.526Z,101315.31
2022-12-18T23:36:56.228Z,101308.84
2022-12-18T23:39:29.866Z,101311.44
2022-12-18T23:41:58.522Z,101309.81
2022-12-18T23:44:25.630Z,101322.78
2022-12-18T23:46:52.187Z,101315.41
2022-12-18T23:49:18.644Z,101312.53
2022-12-18T23:51:45.141Z,101301.44
2022-12-18T23:54:11.561Z,101310.06
2022-12-18T23:56:38.071Z,101307.59
2022-12-18T23:59:04.477Z,101313.59
